createdAt,value
2022-10-18T04:10:58.756Z,101742.84
2022-10-18T04:14:01.946Z,101747.28
2022-10-18T04:17:04.893Z,101752.63
2022-10-18T04:20:10.760Z,101747.28
2022-10-18T04:23:15.023Z,101742.84
2022-10-18T04:26:17.822Z,101748.06
2022-10-18T04:29:20.350Z,101740.16
2022-10-18T04:32:23.217Z,101736.69
2022-10-18T04:35:26.090Z,101734.91
2022-10-18T04:38:28.863Z,101744.53
2022-10-18T04:41:31.265Z,101745.44
2022-10-18T04:44:34.444Z,101740.16
2022-10-18T04:47:36.919Z,101738.41
2022-10-18T04:50:40.583Z,101733.16
2022-10-18T04:53:49.449Z,101734.87
2022-10-18T04:56:52.109Z,101722.59
2022-10-18T04:59:54.479Z,101725.22
2022-10-18T05:02:58.310Z,101715.59
2022-10-18T05:06:02.773Z,101721.72
2022-10-18T05:09:06.390Z,101718.22
2022-10-18T05:12:08.821Z,101724.41
2022-10-18T05:15:11.568Z,101719.13
2022-10-18T05:18:14.149Z,101721.72
2022-10-18T05:21:17.069Z,101725.22
2022-10-18T05:24:21.058Z,101722.56
2022-10-18T05:27:25.716Z,101725.16
2022-10-18T05:30:28.376Z,101725.13
2022-10-18T05:33:31.781Z,101726.00
2022-10-18T05:36:34.272Z,101726.84
2022-10-18T05:39:38.288Z,101727.59
2022-10-18T05:42:40.793Z,101727.69
2022-10-18T05:45:50.867Z,101733.00
2022-10-18T05:48:53.317Z,101732.03
2022-10-18T05:51:56.152Z,101727.59
2022-10-18T05:54:58.571Z,101726.62
2022-10-18T05:58:01.823Z,101722.19
2022-10-18T06:24:24.138Z,101737.12
2022-10-18T06:27:26.915Z,101743.97
2022-10-18T06:30:29.394Z,101748.13
2022-10-18T06:33:33.744Z,101750.56
2022-10-18T06:36:36.166Z,101751.19
2022-10-18T06:39:39.263Z,101758.09
2022-10-18T06:42:43.583Z,101753.53
2022-10-18T06:45:48.953Z,101749.78
2022-10-18T06:48:51.858Z,101750.38
2022-10-18T07:10:53.699Z,101763.03
2022-10-18T07:14:05.809Z,101767.06
2022-10-18T07:17:08.638Z,101757.84
2022-10-18T07:20:13.786Z,101751.22
2022-10-18T07:23:16.158Z,101756.97
2022-10-18T07:26:22.694Z,101753.06
2022-10-18T07:29:25.299Z,101750.88
2022-10-18T07:32:28.025Z,101745.69
2022-10-18T07:35:30.485Z,101744.16
2022-10-18T07:38:33.411Z,101744.63
2022-10-18T07:41:35.950Z,101743.81
2022-10-18T07:44:40.460Z,101740.12
2022-10-18T07:47:43.061Z,101739.38
2022-10-18T07:50:45.971Z,101724.91
2022-10-18T07:53:49.268Z,101729.16
2022-10-18T07:56:52.002Z,101722.19
2022-10-18T07:59:57.020Z,101722.50
2022-10-18T08:03:01.447Z,101718.47
2022-10-18T08:06:05.759Z,101716.16
2022-10-18T08:09:08.297Z,101701.84
2022-10-18T08:12:12.037Z,101705.41
2022-10-18T08:15:14.620Z,101700.50
2022-10-18T08:41:50.468Z,101674.66
2022-10-18T08:44:54.161Z,101666.53
2022-10-18T08:47:57.893Z,101661.47
2022-10-18T08:51:02.662Z,101656.66
2022-10-18T08:54:14.295Z,101653.47
2022-10-18T08:57:18.306Z,101662.38
2022-10-18T09:00:23.517Z,101650.50
2022-10-18T09:04:07.115Z,101641.97
2022-10-18T09:07:28.131Z,101634.88
2022-10-18T09:10:46.462Z,101631.69
2022-10-18T09:14:11.236Z,101632.19
2022-10-18T09:17:51.781Z,101620.47
2022-10-18T09:20:58.716Z,101622.88
2022-10-18T09:24:12.736Z,101620.37
2022-10-18T09:27:20.586Z,101615.47
2022-10-18T09:30:36.380Z,101611.50
2022-10-18T09:33:51.204Z,101615.22
2022-10-18T09:36:54.747Z,101604.62
2022-10-18T09:40:16.480Z,101604.94
2022-10-18T09:43:25.899Z,101607.47
2022-10-18T09:46:33.651Z,101606.84
2022-10-18T09:49:41.987Z,101599.84
2022-10-18T09:52:51.946Z,101593.37
2022-10-18T09:56:06.798Z,101590.66
2022-10-18T09:59:47.461Z,101578.19
2022-10-18T10:02:51.281Z,101586.72
2022-10-18T10:06:12.540Z,101579.84
2022-10-18T10:09:17.431Z,101573.28
2022-10-18T10:12:29.815Z,101569.47
2022-10-18T10:15:37.067Z,101566.59
2022-10-18T10:18:44.610Z,101563.03
2022-10-18T10:21:50.306Z,101559.84
2022-10-18T10:24:54.681Z,101543.00
2022-10-18T10:28:04.062Z,101534.50
2022-10-18T10:31:28.325Z,101545.56
2022-10-18T10:34:31.766Z,101531.34
2022-10-18T10:37:39.972Z,101532.28
2022-10-18T10:40:52.019Z,101520.81
2022-10-18T10:43:54.890Z,101517.81
2022-10-18T10:46:58.058Z,101512.72
2022-10-18T10:50:12.076Z,101511.72
2022-10-18T11:00:58.141Z,101505.09
2022-10-18T11:04:22.839Z,101499.09
2022-10-18T11:07:36.218Z,101489.66
2022-10-18T11:11:08.170Z,101492.62
2022-10-18T11:14:38.837Z,101485.75
2022-10-18T11:18:10.442Z,101481.88
2022-10-18T11:21:23.923Z,101475.53
2022-10-18T11:24:26.752Z,101469.84
2022-10-18T11:27:35.712Z,101463.94
2022-10-18T11:30:55.384Z,101460.09
2022-10-18T11:34:19.121Z,101450.28
2022-10-18T11:37:55.646Z,101449.81
2022-10-18T11:41:24.287Z,101443.53
2022-10-18T11:44:38.202Z,101443.75
2022-10-18T11:47:58.711Z,101434.63
2022-10-18T11:51:04.807Z,101425.50
2022-10-18T11:57:51.312Z,101416.53
2022-10-18T12:01:01.121Z,101412.22
2022-10-18T12:04:17.859Z,101404.81
2022-10-18T12:07:27.774Z,101400.53
2022-10-18T12:10:52.816Z,101388.09
2022-10-18T12:14:06.011Z,101390.69
2022-10-18T12:17:44.259Z,101388.19
2022-10-18T12:20:57.038Z,101389.09
2022-10-18T12:24:03.588Z,101369.28
2022-10-18T12:27:06.342Z,101377.75
2022-10-18T12:30:21.292Z,101370.84
2022-10-18T12:33:29.199Z,101363.56
2022-10-18T12:40:41.345Z,101355.81
2022-10-18T12:43:57.015Z,101346.16
2022-10-18T12:47:02.365Z,101338.63
2022-10-18T12:50:23.177Z,101338.91
2022-10-18T12:53:27.975Z,101321.25
2022-10-18T12:56:34.449Z,101327.66
2022-10-18T12:59:41.216Z,101320.06
2022-10-18T13:02:44.006Z,101316.28
2022-10-18T13:05:53.809Z,101318.72
2022-10-18T13:09:19.203Z,101309.00
